Time;durP1;ratioP1;P1;durP2;ratioP2;P2;SDS_P1;SDS_P2;PMS_P1;PMS_P2;Temp;Humidity;BMP_temperature;BMP_pressure;BME280_temperature;BME280_humidity;BME280_pressure;Samples;Min_cycle;Max_cycle;Signal;HPM_P1;HPM_P2
2023/07/06 00:00:25;;;;;;;2.42;2.22;;;22.70;46.10;;;;;;5038058;28;20251;-79
2023/07/06 00:02:52;;;;;;;2.30;2.10;;;22.60;46.10;;;;;;5036810;28;20678;-79
2023/07/06 00:05:22;;;;;;;2.80;2.20;;;22.70;46.20;;;;;;5036335;28;20200;-79
2023/07/06 00:07:49;;;;;;;2.63;2.20;;;22.70;46.20;;;;;;5035724;28;20218;-79
2023/07/06 00:10:17;;;;;;;2.33;1.88;;;22.70;46.20;;;;;;5034956;28;20223;-79
2023/07/06 00:12:46;;;;;;;2.60;2.25;;;22.60;46.20;;;;;;5035830;28;20354;-79
2023/07/06 00:15:14;;;;;;;2.28;2.05;;;22.60;46.10;;;;;;5034266;28;20266;-79
2023/07/06 00:17:41;;;;;;;3.03;2.10;;;22.60;46.20;;;;;;5001897;28;20223;-79
2023/07/06 00:20:10;;;;;;;2.45;2.17;;;22.60;46.20;;;;;;5034287;28;20216;-79
2023/07/06 00:22:37;;;;;;;2.90;2.05;;;22.60;46.20;;;;;;5036972;28;20227;-79
2023/07/06 00:25:05;;;;;;;2.50;2.28;;;22.60;46.20;;;;;;5038190;28;20209;-79
2023/07/06 00:27:32;;;;;;;2.30;2.10;;;22.60;46.30;;;;;;5038749;28;20235;-79
2023/07/06 00:30:15;;;;;;;3.33;2.10;;;22.60;46.80;;;;;;5039504;28;20231;-79
2023/07/06 00:32:43;;;;;;;2.35;2.15;;;22.60;46.30;;;;;;5024728;28;20188;-80
2023/07/06 00:35:11;;;;;;;2.85;2.15;;;22.60;46.30;;;;;;5039212;28;20258;-80
2023/07/06 00:37:38;;;;;;;2.30;2.00;;;22.50;46.30;;;;;;5039543;28;20200;-80
2023/07/06 00:40:09;;;;;;;2.80;2.40;;;22.60;46.40;;;;;;5039531;28;20220;-80
2023/07/06 00:42:36;;;;;;;2.88;2.40;;;22.50;46.40;;;;;;5039636;28;20199;-80
2023/07/06 00:45:03;;;;;;;2.17;1.95;;;22.50;46.30;;;;;;5040405;28;20301;-80
2023/07/06 00:47:33;;;;;;;2.45;2.22;;;22.50;46.50;;;;;;5040266;28;20277;-79
2023/07/06 00:50:06;;;;;;;3.15;2.60;;;22.50;46.50;;;;;;5040840;28;20223;-79
2023/07/06 00:52:33;;;;;;;3.55;2.38;;;22.50;46.50;;;;;;5039634;28;20196;-79
2023/07/06 00:55:01;;;;;;;2.67;2.20;;;22.50;46.50;;;;;;5040302;28;20188;-79
2023/07/06 00:57:29;;;;;;;3.25;2.28;;;22.50;46.50;;;;;;5038566;28;20231;-79
2023/07/06 00:59:56;;;;;;;3.03;1.98;;;22.50;46.60;;;;;;5022987;28;20561;-79
2023/07/06 01:02:23;;;;;;;2.30;2.00;;;22.50;46.60;;;;;;5039394;28;20208;-79
2023/07/06 01:04:51;;;;;;;2.15;1.95;;;22.40;46.50;;;;;;5036523;28;20192;-79
2023/07/06 01:07:22;;;;;;;2.70;2.22;;;22.50;46.70;;;;;;5032835;28;20196;-79
2023/07/06 01:09:49;;;;;;;2.70;2.30;;;22.50;46.80;;;;;;5033404;28;20216;-79
2023/07/06 01:12:17;;;;;;;2.90;2.33;;;22.40;46.80;;;;;;5034330;28;20203;-80
2023/07/06 01:14:45;;;;;;;2.10;1.90;;;22.30;46.70;;;;;;5034715;28;20199;-80
2023/07/06 01:17:15;;;;;;;2.45;2.17;;;22.40;46.80;;;;;;5035426;28;20219;-80
2023/07/06 01:20:13;;;;;;;3.15;2.30;;;22.40;46.80;;;;;;5036103;28;20216;-79
2023/07/06 01:23:09;;;;;;;2.20;2.00;;;22.40;47.00;;;;;;5037484;28;20586;-80
2023/07/06 01:26:09;;;;;;;2.90;2.17;;;22.30;46.90;;;;;;5004685;28;20207;-79
2023/07/06 01:28:51;;;;;;;2.10;1.90;;;22.40;47.00;;;;;;5037549;28;20734;-80
2023/07/06 01:31:29;;;;;;;2.90;2.05;;;22.30;47.00;;;;;;5038219;28;20184;-80
2023/07/06 01:34:00;;;;;;;2.10;1.90;;;22.30;47.20;;;;;;5038256;28;20192;-80
2023/07/06 01:36:30;;;;;;;2.88;2.05;;;22.30;47.30;;;;;;5022159;28;20231;-80
2023/07/06 01:39:14;;;;;;;2.72;2.47;;;22.30;47.40;;;;;;5038232;28;20237;-80
2023/07/06 01:41:41;;;;;;;2.45;2.17;;;22.30;47.40;;;;;;5037851;28;20196;-80
2023/07/06 01:44:09;;;;;;;2.85;1.85;;;22.30;47.40;;;;;;5037542;28;20204;-80
2023/07/06 01:46:38;;;;;;;3.40;2.20;;;22.20;47.50;;;;;;5038464;28;20592;-80
2023/07/06 01:49:06;;;;;;;2.85;2.03;;;22.20;47.50;;;;;;5038660;28;20227;-80
2023/07/06 01:51:37;;;;;;;2.38;2.17;;;22.20;47.50;;;;;;5038242;28;20206;-80
2023/07/06 01:54:07;;;;;;;2.55;2.30;;;22.20;47.50;;;;;;5039166;28;20201;-80
2023/07/06 01:56:38;;;;;;;2.33;2.10;;;22.20;47.50;;;;;;5046656;28;20203;-79
2023/07/06 01:59:08;;;;;;;2.30;2.08;;;22.20;47.50;;;;;;5047537;28;20216;-79
2023/07/06 02:01:37;;;;;;;2.40;2.20;;;22.10;47.50;;;;;;5046471;28;20629;-79
2023/07/06 02:04:06;;;;;;;2.40;2.20;;;22.20;47.60;;;;;;5040461;28;20204;-79
2023/07/06 02:06:33;;;;;;;2.47;2.10;;;22.10;47.50;;;;;;5036383;28;20200;-79
2023/07/06 02:09:02;;;;;;;3.67;2.38;;;22.10;47.50;;;;;;5043746;28;20215;-79
2023/07/06 02:11:29;;;;;;;3.42;2.30;;;22.10;47.60;;;;;;5045300;28;20200;-79
2023/07/06 02:13:56;;;;;;;2.40;2.20;;;22.00;47.50;;;;;;5044973;28;20196;-80
2023/07/06 02:16:23;;;;;;;2.60;2.40;;;22.00;47.60;;;;;;5046296;28;20294;-80
2023/07/06 02:18:53;;;;;;;3.88;2.08;;;22.10;47.50;;;;;;5043850;28;20220;-80
2023/07/06 02:21:21;;;;;;;2.42;2.20;;;22.00;47.50;;;;;;5023696;28;20188;-80
2023/07/06 02:23:49;;;;;;;3.10;2.30;;;22.00;48.20;;;;;;5039677;28;20624;-80
2023/07/06 02:26:16;;;;;;;2.78;2.45;;;22.00;47.70;;;;;;5039109;28;20209;-80
2023/07/06 02:28:43;;;;;;;3.38;2.40;;;22.00;47.60;;;;;;5038093;28;20246;-80
2023/07/06 02:31:10;;;;;;;2.75;2.30;;;22.00;47.70;;;;;;5036936;28;20640;-80
2023/07/06 02:33:38;;;;;;;2.58;2.10;;;22.00;47.80;;;;;;5020719;28;20295;-80
2023/07/06 02:36:05;;;;;;;2.65;2.30;;;21.90;47.70;;;;;;5036373;28;20207;-79
2023/07/06 02:38:33;;;;;;;2.60;2.22;;;21.90;47.70;;;;;;5037618;28;20224;-79
2023/07/06 02:41:04;;;;;;;2.30;2.10;;;21.90;48.40;;;;;;5040439;28;20200;-79
2023/07/06 02:43:31;;;;;;;3.33;2.30;;;21.90;47.70;;;;;;5039317;28;20643;-79
2023/07/06 02:46:00;;;;;;;2.50;2.30;;;21.90;47.80;;;;;;5039042;28;20202;-79
2023/07/06 02:48:27;;;;;;;2.42;2.00;;;21.90;47.80;;;;;;5039487;28;20270;-79
2023/07/06 02:50:54;;;;;;;2.28;2.08;;;21.90;47.80;;;;;;5039494;28;20220;-79
2023/07/06 02:53:21;;;;;;;2.45;2.10;;;21.80;47.70;;;;;;5039338;28;20666;-79
2023/07/06 02:55:51;;;;;;;3.70;2.47;;;21.80;47.70;;;;;;5038024;28;20200;-80
2023/07/06 02:58:19;;;;;;;3.45;2.30;;;21.80;47.80;;;;;;5036337;28;20574;-80
2023/07/06 03:00:47;;;;;;;2.75;2.22;;;21.70;47.70;;;;;;5038094;28;20203;-80
2023/07/06 03:03:14;;;;;;;3.00;2.30;;;21.80;47.60;;;;;;5037664;28;20258;-80
2023/07/06 03:05:44;;;;;;;3.17;2.25;;;21.80;47.80;;;;;;5038303;28;20204;-80
2023/07/06 03:08:12;;;;;;;3.42;2.47;;;21.80;47.90;;;;;;5038205;28;20524;-80
2023/07/06 03:10:39;;;;;;;2.95;2.28;;;21.70;47.60;;;;;;5037711;28;20253;-80
2023/07/06 03:13:07;;;;;;;3.03;2.33;;;21.80;47.60;;;;;;5037138;28;20200;-80
2023/07/06 03:15:34;;;;;;;2.40;2.20;;;21.80;47.60;;;;;;5037451;28;20200;-80
2023/07/06 03:18:01;;;;;;;2.30;2.10;;;21.80;47.60;;;;;;5036985;28;20211;-80
2023/07/06 03:20:29;;;;;;;2.60;2.40;;;21.70;47.60;;;;;;5035376;28;20669;-80
2023/07/06 03:22:56;;;;;;;2.55;2.20;;;21.80;47.70;;;;;;5036167;28;20261;-80
2023/07/06 03:25:25;;;;;;;3.45;2.15;;;21.80;47.70;;;;;;5036309;28;20196;-80
2023/07/06 03:27:53;;;;;;;2.30;2.10;;;21.90;47.70;;;;;;5035668;28;20211;-80
2023/07/06 03:30:22;;;;;;;2.30;2.10;;;21.90;47.40;;;;;;5035395;28;20226;-80
2023/07/06 03:32:49;;;;;;;2.40;2.17;;;21.90;47.50;;;;;;5035217;28;20206;-80
2023/07/06 03:35:18;;;;;;;3.28;2.20;;;22.00;47.40;;;;;;5035352;28;20203;-80
2023/07/06 03:37:45;;;;;;;2.53;2.33;;;22.00;47.40;;;;;;5019104;28;20224;-80
2023/07/06 03:40:13;;;;;;;2.20;2.00;;;22.00;47.40;;;;;;5035064;28;20695;-80
2023/07/06 03:42:41;;;;;;;2.47;2.28;;;22.00;47.30;;;;;;5018573;28;20203;-79
2023/07/06 03:45:10;;;;;;;2.88;2.33;;;22.00;47.40;;;;;;5035136;28;20322;-79
2023/07/06 03:47:38;;;;;;;2.47;2.10;;;22.00;47.30;;;;;;5018770;28;20192;-79
2023/07/06 03:50:08;;;;;;;3.05;2.33;;;22.10;47.40;;;;;;5034882;28;20237;-79
2023/07/06 03:52:37;;;;;;;2.97;2.10;;;22.10;47.40;;;;;;5034302;28;20203;-79
2023/07/06 03:55:08;;;;;;;2.90;2.45;;;22.10;47.30;;;;;;5018384;28;20192;-79
2023/07/06 03:57:35;;;;;;;3.03;2.33;;;22.10;47.30;;;;;;5033964;28;20204;-79
2023/07/06 04:00:06;;;;;;;2.75;2.10;;;22.10;47.20;;;;;;5034963;28;20220;-79
2023/07/06 04:02:40;;;;;;;2.40;2.20;;;22.10;47.30;;;;;;5039574;28;20662;-79
2023/07/06 04:05:08;;;;;;;2.83;2.17;;;22.10;47.10;;;;;;5037537;28;20207;-79
2023/07/06 04:07:35;;;;;;;2.33;2.13;;;22.10;47.00;;;;;;5038827;28;20192;-80
2023/07/06 04:10:03;;;;;;;2.33;2.13;;;22.10;47.00;;;;;;5039383;28;20255;-80
2023/07/06 04:12:32;;;;;;;4.05;2.60;;;22.00;46.90;;;;;;5039813;28;20227;-80
2023/07/06 04:15:00;;;;;;;3.22;2.17;;;22.00;46.90;;;;;;5023160;28;20257;-80
2023/07/06 04:17:27;;;;;;;2.60;2.10;;;22.00;46.90;;;;;;5039275;28;20200;-80
2023/07/06 04:19:56;;;;;;;2.70;2.35;;;22.10;47.00;;;;;;5038269;28;20601;-80
2023/07/06 04:22:23;;;;;;;3.72;2.10;;;22.00;46.90;;;;;;5020898;28;20286;-80
2023/07/06 04:24:51;;;;;;;3.13;2.35;;;22.10;47.10;;;;;;5034484;28;20200;-80
2023/07/06 04:27:17;;;;;;;2.63;2.40;;;22.00;46.90;;;;;;5034426;28;20199;-79
2023/07/06 04:29:45;;;;;;;2.58;2.35;;;22.10;47.10;;;;;;5033839;28;20226;-79
2023/07/06 04:32:12;;;;;;;3.67;2.63;;;22.10;47.00;;;;;;5036143;28;20536;-79
2023/07/06 04:34:40;;;;;;;4.00;3.00;;;22.10;47.30;;;;;;5036239;28;20302;-80
2023/07/06 04:37:09;;;;;;;2.67;2.38;;;22.00;47.40;;;;;;5036557;28;20204;-80
2023/07/06 04:39:37;;;;;;;2.63;2.28;;;22.10;47.50;;;;;;5036192;28;20687;-81
2023/07/06 04:42:05;;;;;;;3.83;2.47;;;22.00;47.40;;;;;;5035079;28;20200;-80
2023/07/06 04:44:32;;;;;;;2.60;2.33;;;22.10;47.50;;;;;;5037026;28;20196;-80
2023/07/06 04:46:59;;;;;;;3.97;2.30;;;21.90;47.50;;;;;;5020130;28;20235;-80
2023/07/06 04:49:27;;;;;;;4.50;2.55;;;21.80;47.50;;;;;;5019819;28;20226;-80
2023/07/06 04:51:54;;;;;;;2.50;2.30;;;21.90;47.60;;;;;;5035838;28;20211;-81
2023/07/06 04:54:24;;;;;;;2.63;2.42;;;22.00;47.40;;;;;;5034675;28;20196;-81
2023/07/06 04:56:51;;;;;;;3.90;2.22;;;22.10;47.40;;;;;;5036188;28;20196;-81
2023/07/06 04:59:18;;;;;;;2.63;2.40;;;22.20;47.00;;;;;;5021363;28;20235;-81
2023/07/06 05:01:45;;;;;;;2.95;2.33;;;22.40;46.80;;;;;;5037904;28;20246;-81
2023/07/06 05:04:11;;;;;;;3.10;2.50;;;22.50;46.70;;;;;;5037363;28;20200;-81
2023/07/06 05:06:39;;;;;;;3.60;2.33;;;22.60;46.50;;;;;;5037375;28;20275;-81
2023/07/06 05:09:06;;;;;;;2.85;2.50;;;22.70;46.40;;;;;;5039510;28;20243;-81
2023/07/06 05:11:35;;;;;;;3.28;2.60;;;22.80;46.30;;;;;;5041075;28;20274;-81
2023/07/06 05:14:04;;;;;;;2.67;2.47;;;22.90;46.30;;;;;;5037596;28;20673;-81
2023/07/06 05:16:31;;;;;;;2.90;2.30;;;23.00;46.40;;;;;;5037030;28;20203;-84
2023/07/06 05:18:58;;;;;;;2.70;2.50;;;23.00;46.20;;;;;;5037362;28;20706;-85
2023/07/06 05:21:26;;;;;;;4.15;2.75;;;23.20;46.10;;;;;;5021848;28;20192;-85
2023/07/06 05:23:53;;;;;;;3.50;2.42;;;23.30;45.70;;;;;;5021800;28;20204;-84
2023/07/06 05:26:21;;;;;;;2.75;2.42;;;23.40;45.50;;;;;;5037378;28;20208;-84
2023/07/06 05:28:52;;;;;;;3.03;2.50;;;23.50;45.30;;;;;;5021891;28;20216;-85
2023/07/06 05:31:20;;;;;;;5.90;3.00;;;23.60;45.10;;;;;;5037856;28;20223;-85
2023/07/06 05:33:47;;;;;;;3.60;2.75;;;23.80;44.80;;;;;;5034918;28;20560;-85
2023/07/06 05:36:14;;;;;;;3.17;2.70;;;23.90;44.40;;;;;;5034860;28;20232;-85
2023/07/06 05:38:41;;;;;;;3.33;2.40;;;24.00;44.40;;;;;;5036017;28;20220;-84
2023/07/06 05:41:08;;;;;;;2.58;2.38;;;24.10;44.10;;;;;;5037340;28;20199;-85
2023/07/06 05:43:36;;;;;;;3.72;2.72;;;24.20;44.00;;;;;;5037048;28;20199;-83
2023/07/06 05:46:04;;;;;;;3.20;2.85;;;24.30;43.70;;;;;;5026449;28;20199;-80
2023/07/06 05:48:31;;;;;;;5.00;2.70;;;24.40;43.40;;;;;;5042546;28;20208;-81
2023/07/06 05:50:58;;;;;;;4.93;2.60;;;24.50;43.30;;;;;;5042365;28;20238;-81
2023/07/06 05:53:27;;;;;;;2.90;2.60;;;24.60;43.20;;;;;;5041582;28;20196;-80
2023/07/06 05:55:54;;;;;;;3.88;2.67;;;24.70;43.00;;;;;;5041637;28;20229;-81
2023/07/06 05:58:22;;;;;;;3.95;2.40;;;24.80;42.90;;;;;;5040774;28;20196;-80
2023/07/06 06:00:48;;;;;;;2.45;2.25;;;24.80;43.00;;;;;;5041251;28;20283;-81
2023/07/06 06:03:17;;;;;;;3.30;2.55;;;24.90;43.10;;;;;;5039962;28;20215;-81
2023/07/06 06:05:45;;;;;;;3.10;2.28;;;24.90;42.90;;;;;;5040009;28;20196;-81
2023/07/06 06:08:13;;;;;;;4.00;2.40;;;25.00;42.50;;;;;;5039465;28;20211;-81
2023/07/06 06:10:40;;;;;;;3.45;2.53;;;25.10;42.30;;;;;;5039828;28;20224;-80
2023/07/06 06:13:08;;;;;;;3.97;2.55;;;25.20;42.00;;;;;;5038879;28;20210;-80
2023/07/06 06:15:35;;;;;;;3.17;2.22;;;25.30;41.90;;;;;;5022517;28;20203;-81
2023/07/06 06:18:03;;;;;;;2.67;2.42;;;25.30;41.80;;;;;;5038583;28;20647;-81
2023/07/06 06:20:32;;;;;;;3.00;2.70;;;25.40;41.70;;;;;;5020979;28;20208;-81
2023/07/06 06:22:59;;;;;;;2.97;2.40;;;25.50;41.70;;;;;;5037256;28;20196;-80
2023/07/06 06:25:27;;;;;;;2.50;2.30;;;25.50;41.70;;;;;;5036644;28;20667;-80
2023/07/06 06:27:54;;;;;;;2.92;2.35;;;25.60;41.50;;;;;;5042886;28;20184;-80
2023/07/06 06:30:21;;;;;;;3.03;2.40;;;25.60;41.20;;;;;;5036251;28;20224;-81
2023/07/06 06:32:49;;;;;;;3.42;2.35;;;25.70;41.10;;;;;;5041819;28;20196;-80
2023/07/06 06:35:22;;;;;;;4.25;2.85;;;25.80;41.10;;;;;;5043140;28;20200;-81
2023/07/06 06:37:51;;;;;;;3.78;2.60;;;25.80;41.00;;;;;;5044839;28;20206;-81
2023/07/06 06:40:19;;;;;;;3.65;2.38;;;25.90;40.90;;;;;;5045241;28;20224;-80
2023/07/06 06:42:47;;;;;;;2.72;2.50;;;26.00;40.80;;;;;;5045698;28;20200;-80
2023/07/06 06:45:14;;;;;;;2.60;2.40;;;26.00;40.50;;;;;;5044799;28;20291;-80
2023/07/06 06:47:41;;;;;;;2.53;2.30;;;26.10;41.10;;;;;;5044175;28;20295;-80
2023/07/06 06:50:09;;;;;;;2.72;2.38;;;26.20;40.50;;;;;;5044273;28;20250;-80
2023/07/06 06:52:36;;;;;;;3.03;2.63;;;26.20;40.90;;;;;;5047925;28;20597;-80
2023/07/06 06:55:06;;;;;;;2.58;2.38;;;26.30;40.80;;;;;;5047870;28;20196;-80
2023/07/06 06:57:34;;;;;;;2.47;2.28;;;26.30;40.10;;;;;;5043705;28;20622;-80
2023/07/06 07:00:01;;;;;;;3.10;2.70;;;26.40;40.00;;;;;;5039589;28;20358;-80
2023/07/06 07:02:29;;;;;;;3.40;2.60;;;26.40;39.90;;;;;;5039308;28;20286;-80
2023/07/06 07:04:59;;;;;;;3.20;2.40;;;26.50;39.80;;;;;;5021310;28;20655;-80
2023/07/06 07:07:26;;;;;;;2.90;2.60;;;26.50;39.70;;;;;;5004184;28;20291;-80
2023/07/06 07:09:54;;;;;;;3.97;2.38;;;26.60;39.60;;;;;;5037635;28;20243;-80
2023/07/06 07:12:22;;;;;;;4.18;2.60;;;26.60;39.50;;;;;;5046423;28;20737;-80
2023/07/06 07:14:49;;;;;;;4.20;2.47;;;26.60;39.30;;;;;;5046535;28;20219;-80
2023/07/06 07:17:16;;;;;;;2.58;2.28;;;26.70;39.30;;;;;;5046212;28;20199;-80
2023/07/06 07:19:43;;;;;;;3.13;2.40;;;26.70;39.10;;;;;;5046123;28;20222;-80
2023/07/06 07:22:10;;;;;;;2.63;2.28;;;26.70;39.00;;;;;;5029932;28;20196;-80
2023/07/06 07:24:37;;;;;;;3.25;2.22;;;26.80;38.80;;;;;;5036595;28;20199;-80
2023/07/06 07:27:05;;;;;;;2.50;2.30;;;26.80;38.70;;;;;;5038503;28;20234;-80
2023/07/06 07:29:33;;;;;;;3.47;2.35;;;26.90;38.50;;;;;;5023860;28;20740;-80
2023/07/06 07:32:02;;;;;;;3.42;2.30;;;26.90;38.30;;;;;;5041988;28;20224;-80
2023/07/06 07:34:29;;;;;;;2.40;2.20;;;26.90;38.10;;;;;;5041899;28;20200;-80
2023/07/06 07:36:58;;;;;;;2.75;2.25;;;27.00;38.00;;;;;;5041874;28;20196;-80
2023/07/06 07:39:25;;;;;;;3.35;2.33;;;27.00;37.80;;;;;;5042090;28;20223;-80
2023/07/06 07:41:52;;;;;;;3.22;2.72;;;27.10;37.70;;;;;;5026630;28;20207;-79
2023/07/06 07:44:19;;;;;;;2.90;2.47;;;27.10;37.50;;;;;;5042973;28;20210;-79
2023/07/06 07:46:48;;;;;;;3.28;2.50;;;27.10;37.40;;;;;;5041715;28;20290;-79
2023/07/06 07:49:14;;;;;;;4.22;2.65;;;27.20;37.40;;;;;;5035202;28;20216;-79
2023/07/06 07:51:42;;;;;;;2.50;2.30;;;27.20;37.30;;;;;;5034212;28;20219;-79
2023/07/06 07:54:09;;;;;;;2.85;2.05;;;27.20;37.30;;;;;;5035604;28;20200;-79
2023/07/06 07:56:36;;;;;;;2.65;2.30;;;27.30;37.30;;;;;;5037139;28;20653;-79
2023/07/06 07:59:04;;;;;;;3.25;2.35;;;27.30;37.30;;;;;;5022183;28;20273;-80
2023/07/06 08:01:32;;;;;;;2.40;2.20;;;27.30;37.30;;;;;;5039301;28;20192;-80
2023/07/06 08:04:02;;;;;;;4.13;2.55;;;27.40;37.30;;;;;;5039923;28;20200;-80
2023/07/06 08:06:29;;;;;;;2.75;2.17;;;27.40;37.20;;;;;;5049605;28;20219;-80
2023/07/06 08:08:56;;;;;;;2.30;2.10;;;27.50;36.90;;;;;;5051349;28;20211;-80
2023/07/06 08:11:23;;;;;;;2.97;2.13;;;27.50;36.80;;;;;;5034568;28;20230;-80
2023/07/06 08:13:53;;;;;;;2.20;1.90;;;27.50;36.70;;;;;;5048713;28;20550;-80
2023/07/06 08:16:21;;;;;;;3.13;2.35;;;27.60;36.60;;;;;;5047216;28;20232;-80
2023/07/06 08:18:48;;;;;;;2.42;2.10;;;27.60;36.40;;;;;;5044927;28;20227;-80
2023/07/06 08:21:19;;;;;;;2.97;2.40;;;27.60;36.40;;;;;;5035650;28;20202;-80
2023/07/06 08:23:47;;;;;;;3.25;2.40;;;27.60;36.20;;;;;;5037263;28;20199;-80
2023/07/06 08:26:15;;;;;;;3.25;2.30;;;27.70;36.30;;;;;;5041676;28;20200;-80
2023/07/06 08:28:42;;;;;;;2.65;1.90;;;27.70;36.50;;;;;;5043948;28;20222;-80
2023/07/06 08:31:12;;;;;;;2.80;2.20;;;27.60;36.40;;;;;;5042791;28;20199;-80
2023/07/06 08:33:39;;;;;;;2.15;1.95;;;27.60;36.50;;;;;;5043359;28;20218;-80
2023/07/06 08:36:07;;;;;;;2.40;2.20;;;27.60;36.30;;;;;;5042504;28;20261;-80
2023/07/06 08:38:37;;;;;;;2.22;2.00;;;27.60;36.40;;;;;;5042590;28;20222;-80
2023/07/06 08:41:10;;;;;;;3.13;1.92;;;27.60;36.30;;;;;;5042491;28;20213;-80
2023/07/06 08:43:38;;;;;;;2.67;2.00;;;27.60;36.20;;;;;;5043324;28;20196;-80
2023/07/06 08:46:06;;;;;;;2.42;1.90;;;27.70;36.10;;;;;;5042372;28;20207;-80
2023/07/06 08:48:35;;;;;;;2.97;2.08;;;27.70;36.20;;;;;;5041425;28;20238;-80
2023/07/06 08:51:03;;;;;;;2.33;2.13;;;27.70;36.40;;;;;;5040476;28;20206;-80
2023/07/06 08:53:32;;;;;;;2.67;2.33;;;27.70;36.40;;;;;;5039952;28;20223;-80
2023/07/06 08:56:03;;;;;;;2.22;2.00;;;27.80;36.40;;;;;;5040193;28;20206;-80
2023/07/06 08:58:33;;;;;;;3.45;2.28;;;27.80;36.20;;;;;;5041266;28;20269;-80
2023/07/06 09:01:04;;;;;;;2.85;2.10;;;27.80;36.20;;;;;;5040164;28;20196;-80
2023/07/06 09:03:31;;;;;;;2.83;1.92;;;27.80;36.10;;;;;;5039018;28;20198;-80
2023/07/06 09:05:58;;;;;;;3.42;1.98;;;27.80;36.10;;;;;;5038800;28;20210;-80
2023/07/06 09:08:25;;;;;;;2.10;1.90;;;27.80;36.20;;;;;;5038092;28;20219;-80
2023/07/06 09:10:53;;;;;;;2.15;1.95;;;27.80;36.20;;;;;;5037468;28;20613;-80
2023/07/06 09:13:24;;;;;;;2.42;2.10;;;27.90;36.20;;;;;;5036691;28;20215;-80
2023/07/06 09:15:56;;;;;;;3.15;2.20;;;27.90;36.20;;;;;;5035740;28;20646;-80
2023/07/06 09:18:23;;;;;;;2.28;2.00;;;27.90;36.30;;;;;;5033159;28;20626;-80
2023/07/06 09:20:51;;;;;;;2.15;1.90;;;28.00;36.30;;;;;;5034012;28;20203;-80
2023/07/06 09:23:18;;;;;;;3.28;2.15;;;28.00;36.10;;;;;;5039228;28;20203;-80
2023/07/06 09:25:47;;;;;;;3.88;2.10;;;27.90;36.10;;;;;;5037899;28;20223;-80
2023/07/06 09:28:16;;;;;;;2.13;1.80;;;27.90;36.20;;;;;;5037955;28;20195;-80
2023/07/06 09:30:45;;;;;;;2.45;2.00;;;27.70;36.10;;;;;;5037495;28;20278;-80
2023/07/06 09:33:19;;;;;;;2.00;1.85;;;27.60;36.50;;;;;;5021478;28;20273;-80
2023/07/06 09:35:48;;;;;;;2.78;1.73;;;27.40;36.80;;;;;;5020263;28;20191;-80
2023/07/06 09:38:15;;;;;;;2.22;1.90;;;27.30;36.90;;;;;;5036953;28;20195;-80
2023/07/06 09:40:43;;;;;;;2.17;1.98;;;27.10;37.00;;;;;;5038642;28;20285;-80
2023/07/06 09:43:20;;;;;;;2.20;2.00;;;27.00;37.20;;;;;;5037098;28;20632;-80
2023/07/06 09:45:49;;;;;;;2.17;1.98;;;27.00;37.40;;;;;;5035900;28;20191;-80
2023/07/06 09:48:30;;;;;;;1.80;1.70;;;27.10;37.40;;;;;;5036345;28;20257;-80
2023/07/06 09:51:00;;;;;;;2.72;2.03;;;27.10;37.20;;;;;;5036233;28;20188;-80
2023/07/06 09:53:30;;;;;;;2.13;1.80;;;27.20;37.20;;;;;;5035017;28;20219;-80
2023/07/06 09:55:57;;;;;;;3.95;2.20;;;27.30;37.10;;;;;;5035490;28;20192;-80
2023/07/06 09:58:25;;;;;;;2.53;2.00;;;27.40;36.60;;;;;;5035216;28;20215;-80
2023/07/06 10:00:56;;;;;;;3.85;2.17;;;27.50;36.50;;;;;;5034689;28;20227;-80
2023/07/06 10:03:31;;;;;;;2.38;1.95;;;27.50;36.50;;;;;;5059421;23;20668;-79
2023/07/06 10:06:01;;;;;;;2.20;2.00;;;27.50;36.70;;;;;;5013320;28;20564;-80
2023/07/06 10:08:30;;;;;;;2.90;2.13;;;27.60;36.60;;;;;;5014736;28;20216;-80
2023/07/06 10:11:03;;;;;;;2.13;1.92;;;27.60;36.70;;;;;;5017020;28;20195;-80
2023/07/06 10:13:36;;;;;;;2.53;2.10;;;27.60;36.60;;;;;;5015155;28;20251;-80
2023/07/06 10:16:14;;;;;;;2.33;1.92;;;27.60;36.60;;;;;;5013750;28;20372;-80
2023/07/06 10:18:49;;;;;;;2.20;2.00;;;27.60;36.80;;;;;;5013549;28;20216;-80
2023/07/06 10:21:18;;;;;;;2.20;2.00;;;27.60;36.70;;;;;;5012440;28;20231;-80
2023/07/06 10:23:50;;;;;;;2.53;2.08;;;27.60;36.60;;;;;;5012643;28;20192;-80
2023/07/06 10:26:19;;;;;;;2.45;2.25;;;27.50;36.70;;;;;;5015520;28;20239;-80
2023/07/06 10:28:48;;;;;;;2.30;2.10;;;27.50;36.90;;;;;;5037206;28;20235;-80
2023/07/06 10:31:17;;;;;;;2.17;1.98;;;27.50;36.70;;;;;;5041252;28;20271;-80
2023/07/06 10:33:49;;;;;;;2.22;2.03;;;27.40;36.90;;;;;;5041528;28;20215;-80
2023/07/06 10:36:16;;;;;;;2.22;1.90;;;27.30;37.10;;;;;;5041390;28;20248;-80
2023/07/06 10:38:44;;;;;;;2.33;1.98;;;27.30;37.10;;;;;;5032730;28;20567;-80
2023/07/06 10:41:27;;;;;;;2.78;2.30;;;27.20;37.30;;;;;;5001039;28;20195;-80
2023/07/06 10:43:55;;;;;;;2.35;2.00;;;27.10;37.50;;;;;;5016600;28;20216;-80
2023/07/06 10:46:33;;;;;;;2.67;1.83;;;27.00;37.60;;;;;;5018731;28;20207;-80
2023/07/06 10:49:18;;;;;;;1.98;1.77;;;26.90;37.90;;;;;;5019095;28;20222;-80
2023/07/06 10:51:50;;;;;;;2.72;1.90;;;26.90;37.90;;;;;;5018928;28;20222;-80
2023/07/06 10:54:18;;;;;;;2.03;1.83;;;26.80;38.00;;;;;;5018542;28;20196;-80
2023/07/06 10:56:47;;;;;;;1.80;1.70;;;26.80;38.20;;;;;;5018696;28;20671;-78
2023/07/06 10:59:17;;;;;;;3.30;2.10;;;26.70;38.10;;;;;;5018647;28;20212;-79
2023/07/06 11:01:49;;;;;;;2.40;1.92;;;26.70;38.30;;;;;;5018564;28;20254;-79
2023/07/06 11:04:51;;;;;;;2.50;1.85;;;26.70;38.40;;;;;;5020665;28;20311;-79
2023/07/06 11:07:45;;;;;;;2.25;2.05;;;26.60;38.50;;;;;;5020338;28;20271;-79
2023/07/06 11:10:32;;;;;;;2.10;1.90;;;26.50;38.60;;;;;;5015764;28;20231;-80
2023/07/06 11:13:15;;;;;;;2.45;2.10;;;26.50;38.60;;;;;;5015756;28;20302;-80
2023/07/06 11:15:56;;;;;;;2.05;1.95;;;26.40;38.80;;;;;;5015521;28;20206;-80
2023/07/06 11:18:28;;;;;;;2.17;1.98;;;26.40;39.20;;;;;;5015602;28;20223;-80
2023/07/06 11:20:57;;;;;;;2.10;1.90;;;26.30;39.00;;;;;;5015367;28;20199;-80
2023/07/06 11:23:31;;;;;;;2.47;2.05;;;26.30;39.00;;;;;;5014572;28;20251;-80
2023/07/06 11:25:59;;;;;;;2.20;2.00;;;26.30;39.10;;;;;;5014683;28;20203;-80
2023/07/06 11:28:27;;;;;;;2.10;1.83;;;26.30;39.00;;;;;;5014343;28;20224;-80
2023/07/06 11:30:58;;;;;;;2.15;1.95;;;26.40;39.70;;;;;;5021259;28;20215;-80
2023/07/06 11:33:30;;;;;;;2.50;2.10;;;26.40;39.20;;;;;;4985069;28;20298;-80
2023/07/06 11:36:01;;;;;;;2.42;2.22;;;26.40;39.80;;;;;;5014978;28;20200;-80
2023/07/06 11:38:42;;;;;;;2.10;1.90;;;26.30;39.00;;;;;;5015514;28;20639;-80
2023/07/06 11:41:13;;;;;;;1.90;1.80;;;26.30;39.10;;;;;;5013880;28;20219;-80
2023/07/06 11:43:49;;;;;;;2.42;2.22;;;26.40;39.30;;;;;;5015002;28;20192;-80
2023/07/06 11:46:32;;;;;;;2.30;2.10;;;26.40;39.20;;;;;;5014926;28;20230;-80
2023/07/06 11:49:20;;;;;;;2.75;2.13;;;26.30;39.20;;;;;;5014202;28;20220;-80
2023/07/06 11:51:48;;;;;;;2.10;2.00;;;26.30;39.20;;;;;;5014927;28;20192;-80
2023/07/06 11:54:39;;;;;;;2.35;2.10;;;26.30;39.00;;;;;;5014928;28;20637;-80
2023/07/06 11:57:24;;;;;;;2.20;2.00;;;26.30;39.10;;;;;;5013997;28;20211;-80
2023/07/06 12:00:09;;;;;;;2.65;1.90;;;26.20;39.20;;;;;;5017443;28;20714;-80
2023/07/06 12:02:50;;;;;;;2.83;2.20;;;26.30;39.20;;;;;;5015244;28;20679;-80
2023/07/06 12:05:24;;;;;;;2.30;2.10;;;26.20;39.30;;;;;;5014572;28;20200;-80
2023/07/06 12:07:57;;;;;;;2.17;1.98;;;26.20;39.40;;;;;;5014739;28;20203;-80
2023/07/06 12:10:24;;;;;;;2.20;2.00;;;26.20;39.50;;;;;;5014074;28;20319;-80
2023/07/06 12:12:52;;;;;;;3.17;2.10;;;26.20;39.30;;;;;;5014173;28;20223;-80
2023/07/06 12:15:21;;;;;;;2.20;2.00;;;26.20;39.20;;;;;;5013642;28;20254;-80
2023/07/06 12:17:49;;;;;;;2.85;2.10;;;26.20;39.30;;;;;;5015022;28;20279;-80
2023/07/06 12:20:16;;;;;;;2.38;2.17;;;26.20;39.40;;;;;;5013759;28;20234;-80
2023/07/06 12:22:56;;;;;;;2.30;2.10;;;26.20;39.30;;;;;;4997467;28;20247;-80
2023/07/06 12:25:25;;;;;;;2.25;2.05;;;26.20;39.30;;;;;;5013659;28;20200;-80
2023/07/06 12:27:57;;;;;;;2.47;2.03;;;26.20;38.80;;;;;;5015410;28;20199;-80
2023/07/06 12:30:28;;;;;;;2.20;2.00;;;26.20;38.80;;;;;;5014014;28;20256;-80
2023/07/06 12:32:55;;;;;;;2.20;2.00;;;26.20;39.10;;;;;;5013920;28;20212;-80
2023/07/06 12:35:22;;;;;;;2.22;2.00;;;26.20;39.20;;;;;;5013867;28;20659;-80
2023/07/06 12:37:55;;;;;;;2.63;2.05;;;26.20;39.30;;;;;;4997588;28;20211;-80
2023/07/06 12:40:25;;;;;;;2.30;2.10;;;26.10;39.20;;;;;;5013874;28;20584;-80
2023/07/06 12:42:52;;;;;;;2.38;2.10;;;26.20;39.40;;;;;;4997347;28;20228;-80
2023/07/06 12:45:20;;;;;;;2.20;2.00;;;26.20;39.30;;;;;;5013523;28;20195;-80
2023/07/06 12:47:48;;;;;;;2.78;2.10;;;26.20;39.30;;;;;;5014504;28;20203;-80
2023/07/06 12:50:25;;;;;;;2.55;2.35;;;26.10;39.40;;;;;;5012963;28;20568;-80
2023/07/06 12:53:02;;;;;;;3.58;2.40;;;26.20;39.40;;;;;;5013219;28;20208;-80
2023/07/06 12:55:33;;;;;;;2.30;2.10;;;26.10;39.40;;;;;;5014059;28;20218;-80
2023/07/06 12:58:14;;;;;;;2.40;2.20;;;26.10;39.30;;;;;;5013611;28;20215;-80
2023/07/06 13:00:44;;;;;;;2.75;2.17;;;26.10;39.50;;;;;;5015383;28;20659;-80